Time;durP1;ratioP1;P1;durP2;ratioP2;P2;SDS_P1;SDS_P2;PMS_P1;PMS_P2;Temp;Humidity;BMP_temperature;BMP_pressure;BME280_temperature;BME280_humidity;BME280_pressure;Samples;Min_cycle;Max_cycle;Signal;HPM_P1;HPM_P2
2023/06/06 00:00:10;;;;;;;3.37;1.87;;;19.40;46.00;;;;;;4976505;28;21208;-73
2023/06/06 00:02:42;;;;;;;4.50;1.80;;;19.40;46.10;;;;;;4994472;28;21250;-73
2023/06/06 00:05:08;;;;;;;3.83;2.20;;;19.30;46.20;;;;;;4994040;28;20625;-74
2023/06/06 00:07:35;;;;;;;2.87;1.70;;;19.30;46.30;;;;;;4997488;28;20685;-74
2023/06/06 00:10:01;;;;;;;2.40;1.53;;;19.20;46.30;;;;;;4959968;28;21127;-74
2023/06/06 00:12:28;;;;;;;2.90;1.73;;;19.20;46.50;;;;;;4993930;28;20633;-73
2023/06/06 00:14:59;;;;;;;2.57;1.70;;;19.20;46.70;;;;;;4992452;28;21359;-73
2023/06/06 00:17:25;;;;;;;3.30;1.60;;;19.10;46.60;;;;;;4976638;28;20586;-74
2023/06/06 00:19:52;;;;;;;3.83;1.83;;;19.10;46.70;;;;;;4976104;28;20685;-73
2023/06/06 00:22:22;;;;;;;3.97;1.87;;;19.10;46.80;;;;;;4976284;28;20940;-73
2023/06/06 00:24:52;;;;;;;2.17;1.50;;;19.00;47.00;;;;;;4976400;28;20582;-73
2023/06/06 00:27:19;;;;;;;2.80;1.77;;;19.00;47.10;;;;;;4975680;28;21034;-73
2023/06/06 00:29:45;;;;;;;3.33;1.70;;;19.00;47.10;;;;;;4976062;28;20633;-73
2023/06/06 00:32:10;;;;;;;3.93;1.73;;;18.90;47.30;;;;;;4975776;28;20582;-74
2023/06/06 00:34:37;;;;;;;3.47;1.70;;;18.80;47.20;;;;;;4993662;28;20237;-73
2023/06/06 00:37:03;;;;;;;5.07;2.13;;;18.80;47.30;;;;;;4994820;28;20688;-74
2023/06/06 00:39:29;;;;;;;3.20;1.50;;;18.80;47.50;;;;;;5013272;28;20213;-73
2023/06/06 00:41:57;;;;;;;5.10;1.50;;;18.70;47.60;;;;;;5007985;28;20634;-74
2023/06/06 00:44:22;;;;;;;3.50;1.47;;;18.70;47.80;;;;;;4963435;28;21180;-73
2023/06/06 00:46:49;;;;;;;2.60;1.60;;;18.70;47.90;;;;;;4993656;28;20286;-74
2023/06/06 00:49:17;;;;;;;4.20;2.10;;;18.60;48.00;;;;;;4959296;28;20629;-74
2023/06/06 00:51:45;;;;;;;5.47;1.87;;;18.60;48.20;;;;;;4975744;28;20574;-73
2023/06/06 00:54:14;;;;;;;2.60;1.70;;;18.60;48.30;;;;;;4974390;28;20567;-73
2023/06/06 00:56:43;;;;;;;2.70;1.60;;;18.50;48.60;;;;;;4976002;28;20908;-73
2023/06/06 00:59:10;;;;;;;3.50;1.87;;;18.50;48.70;;;;;;4975355;28;20713;-74
2023/06/06 01:01:38;;;;;;;3.10;1.70;;;18.40;48.70;;;;;;4992579;28;20578;-73
2023/06/06 01:04:10;;;;;;;2.90;1.47;;;18.40;49.00;;;;;;4972622;28;20614;-73
2023/06/06 01:06:37;;;;;;;2.47;1.50;;;18.30;49.10;;;;;;4976464;28;21167;-73
2023/06/06 01:09:07;;;;;;;2.77;1.60;;;18.30;49.20;;;;;;4959269;28;20598;-73
2023/06/06 01:11:56;;;;;;;2.27;1.67;;;18.30;49.60;;;;;;4974770;28;20566;-73
2023/06/06 01:14:37;;;;;;;4.57;1.47;;;18.20;50.50;;;;;;4968097;28;21217;-73
2023/06/06 01:17:10;;;;;;;5.83;1.90;;;18.20;49.90;;;;;;4992651;28;20575;-73
2023/06/06 01:19:41;;;;;;;3.70;1.57;;;18.20;49.80;;;;;;4977736;28;20613;-74
2023/06/06 01:22:07;;;;;;;4.47;2.10;;;18.20;50.20;;;;;;4960034;28;20574;-73
2023/06/06 01:24:36;;;;;;;3.07;1.53;;;18.10;50.40;;;;;;4991446;28;20631;-73
2023/06/06 01:27:03;;;;;;;3.03;1.80;;;18.10;50.60;;;;;;4973449;28;21050;-73
2023/06/06 01:29:30;;;;;;;2.60;1.63;;;18.10;50.70;;;;;;4986683;28;20679;-74
2023/06/06 01:32:25;;;;;;;5.00;1.80;;;18.10;51.00;;;;;;4970466;28;20684;-73
2023/06/06 01:35:01;;;;;;;6.73;2.00;;;18.00;51.80;;;;;;4989835;28;20582;-73
2023/06/06 01:37:45;;;;;;;4.50;2.00;;;18.00;51.60;;;;;;5010444;28;20635;-74
2023/06/06 01:40:13;;;;;;;3.07;2.17;;;18.00;51.90;;;;;;4977987;28;20716;-73
2023/06/06 01:42:46;;;;;;;4.73;2.87;;;17.90;51.60;;;;;;4989377;28;20596;-74
2023/06/06 01:45:18;;;;;;;2.93;2.07;;;17.90;52.00;;;;;;4970836;28;20597;-74
2023/06/06 01:47:44;;;;;;;6.20;2.03;;;17.90;52.10;;;;;;5011252;28;20643;-73
2023/06/06 01:50:11;;;;;;;3.70;2.00;;;17.80;52.30;;;;;;5011355;28;20578;-74
2023/06/06 01:52:37;;;;;;;4.90;3.03;;;17.80;52.70;;;;;;4977717;28;20577;-73
2023/06/06 01:55:05;;;;;;;3.40;2.40;;;17.70;52.70;;;;;;4993959;28;20581;-74
2023/06/06 01:57:32;;;;;;;2.77;2.30;;;17.70;53.00;;;;;;4997051;28;20677;-73
2023/06/06 02:00:00;;;;;;;4.73;2.53;;;17.60;53.20;;;;;;4975813;28;20593;-73
2023/06/06 02:02:27;;;;;;;3.23;2.20;;;17.60;53.40;;;;;;4971929;28;20628;-73
2023/06/06 02:04:53;;;;;;;5.90;2.70;;;17.50;53.50;;;;;;4993394;28;20596;-73
2023/06/06 02:07:19;;;;;;;3.80;2.37;;;17.50;53.90;;;;;;4993422;28;20651;-74
2023/06/06 02:09:45;;;;;;;5.23;2.27;;;17.50;54.20;;;;;;4993048;28;20593;-74
2023/06/06 02:12:11;;;;;;;8.73;2.33;;;17.40;54.40;;;;;;5010147;28;20680;-74
2023/06/06 02:14:37;;;;;;;4.03;2.70;;;17.40;54.70;;;;;;4993991;28;20174;-73
2023/06/06 02:17:03;;;;;;;3.70;2.00;;;17.40;55.20;;;;;;5011085;28;20182;-73
2023/06/06 02:19:33;;;;;;;5.10;2.27;;;17.30;55.30;;;;;;4977497;28;20641;-73
2023/06/06 02:22:00;;;;;;;5.17;2.30;;;17.30;56.00;;;;;;5010610;28;20581;-73
2023/06/06 02:24:27;;;;;;;4.93;3.70;;;17.30;55.80;;;;;;4993690;28;20585;-73
2023/06/06 02:26:53;;;;;;;3.20;2.40;;;17.30;56.10;;;;;;4992829;28;20950;-73
2023/06/06 02:29:22;;;;;;;3.90;2.27;;;17.30;56.50;;;;;;4977482;28;21105;-73
2023/06/06 02:31:49;;;;;;;3.63;2.20;;;17.20;56.80;;;;;;4976591;28;20579;-73
2023/06/06 02:34:15;;;;;;;4.50;2.60;;;17.20;57.20;;;;;;4993171;28;20565;-73
2023/06/06 02:36:41;;;;;;;4.50;2.17;;;17.20;57.60;;;;;;4994530;28;20648;-73
2023/06/06 02:39:11;;;;;;;3.83;2.70;;;17.10;57.90;;;;;;4973786;28;20645;-73
2023/06/06 02:41:36;;;;;;;4.10;2.40;;;17.10;59.20;;;;;;4974744;28;20594;-73
2023/06/06 02:44:03;;;;;;;4.70;2.80;;;17.10;58.50;;;;;;4993214;28;20593;-73
2023/06/06 02:46:30;;;;;;;5.00;2.37;;;17.10;59.20;;;;;;4976785;28;20637;-73
2023/06/06 02:48:56;;;;;;;3.53;2.40;;;17.00;59.40;;;;;;4966817;28;20618;-74
2023/06/06 02:51:23;;;;;;;3.90;2.60;;;17.00;59.80;;;;;;4974167;28;20589;-73
2023/06/06 02:53:49;;;;;;;5.53;2.80;;;17.00;60.20;;;;;;5009133;28;20586;-73
2023/06/06 02:56:16;;;;;;;4.40;3.43;;;17.00;61.20;;;;;;4977071;28;20182;-74
2023/06/06 02:58:45;;;;;;;4.73;3.30;;;17.00;61.90;;;;;;4992861;28;20615;-73
2023/06/06 03:01:14;;;;;;;4.40;2.87;;;16.90;62.50;;;;;;4992877;28;21227;-73
2023/06/06 03:03:40;;;;;;;6.50;3.20;;;16.90;63.20;;;;;;4993033;28;20597;-73
2023/06/06 03:06:07;;;;;;;4.73;3.30;;;16.90;63.50;;;;;;4976267;28;20581;-73
2023/06/06 03:08:34;;;;;;;4.97;3.03;;;16.80;64.30;;;;;;4977119;28;20657;-73
2023/06/06 03:11:00;;;;;;;4.13;2.90;;;16.80;65.10;;;;;;4997786;28;20565;-73
2023/06/06 03:13:27;;;;;;;5.80;3.03;;;16.80;65.50;;;;;;5010720;28;20588;-73
2023/06/06 03:15:53;;;;;;;4.97;3.47;;;16.70;66.30;;;;;;4976284;28;20676;-73
2023/06/06 03:18:24;;;;;;;4.53;2.85;;;16.70;67.10;;;;;;4994798;28;20624;-73
2023/06/06 03:20:57;;;;;;;4.15;3.42;;;16.70;67.80;;;;;;4981156;28;20178;-73
2023/06/06 03:23:26;;;;;;;7.10;3.20;;;16.70;68.40;;;;;;4996884;28;20171;-73
2023/06/06 03:25:53;;;;;;;5.43;3.70;;;16.60;69.00;;;;;;4980313;28;20565;-74
2023/06/06 03:28:20;;;;;;;4.97;2.53;;;16.60;69.80;;;;;;4996158;28;20313;-73
2023/06/06 03:30:47;;;;;;;5.57;3.90;;;16.60;70.50;;;;;;4989087;28;20654;-73
2023/06/06 03:33:14;;;;;;;4.83;3.43;;;16.60;71.20;;;;;;4989350;28;20578;-73
2023/06/06 03:35:42;;;;;;;4.63;3.33;;;16.60;72.60;;;;;;4961550;28;20643;-73
2023/06/06 03:38:09;;;;;;;5.00;3.55;;;16.60;73.10;;;;;;4996080;28;20284;-73
2023/06/06 03:40:35;;;;;;;9.65;3.78;;;16.60;74.10;;;;;;4980326;28;20285;-73
2023/06/06 03:43:02;;;;;;;7.63;3.67;;;16.60;74.70;;;;;;4983125;28;20183;-73
2023/06/06 03:45:29;;;;;;;6.67;3.97;;;16.60;75.50;;;;;;4978002;28;20586;-73
2023/06/06 03:47:55;;;;;;;6.27;4.07;;;16.60;76.40;;;;;;4963042;28;20720;-73
2023/06/06 03:50:21;;;;;;;4.50;3.47;;;16.60;77.00;;;;;;4977410;28;20194;-73
2023/06/06 03:52:47;;;;;;;7.50;3.63;;;16.60;77.60;;;;;;4965842;28;21126;-73
2023/06/06 03:55:13;;;;;;;5.27;3.77;;;16.60;78.20;;;;;;4960872;28;20233;-74
2023/06/06 03:57:40;;;;;;;7.70;3.97;;;16.60;79.50;;;;;;4976878;28;20629;-73
2023/06/06 04:00:13;;;;;;;6.43;3.47;;;16.60;80.60;;;;;;4960099;28;20651;-74
2023/06/06 04:02:39;;;;;;;4.65;2.97;;;16.60;81.40;;;;;;4994211;28;20582;-73
2023/06/06 04:05:06;;;;;;;9.00;3.63;;;16.60;82.00;;;;;;4976353;28;20179;-73
2023/06/06 04:07:33;;;;;;;5.80;4.47;;;16.60;82.80;;;;;;4960408;28;20636;-73
2023/06/06 04:10:00;;;;;;;5.87;3.97;;;16.70;83.10;;;;;;4959756;28;20601;-74
2023/06/06 04:12:27;;;;;;;4.73;3.07;;;16.70;83.80;;;;;;4976504;28;20594;-73
2023/06/06 04:14:52;;;;;;;4.20;3.47;;;16.70;84.60;;;;;;4960599;28;20930;-74
2023/06/06 04:17:19;;;;;;;5.37;3.77;;;16.70;85.30;;;;;;4992166;28;20189;-73
2023/06/06 04:19:47;;;;;;;5.97;3.87;;;16.80;86.10;;;;;;4960285;28;20185;-73
2023/06/06 04:22:17;;;;;;;6.40;4.00;;;16.80;87.20;;;;;;4960103;28;20593;-74
2023/06/06 04:24:43;;;;;;;4.20;3.40;;;16.90;87.90;;;;;;4981298;28;20700;-74
2023/06/06 04:27:09;;;;;;;10.17;4.20;;;17.00;88.90;;;;;;4986686;28;20733;-73
2023/06/06 04:29:35;;;;;;;4.60;3.90;;;17.10;90.10;;;;;;4974689;28;20199;-74
2023/06/06 04:32:05;;;;;;;5.03;3.80;;;17.30;90.70;;;;;;4975697;28;20574;-74
2023/06/06 04:34:31;;;;;;;6.17;4.83;;;17.50;91.00;;;;;;4982853;28;20598;-74
2023/06/06 04:37:04;;;;;;;5.30;3.97;;;17.70;91.20;;;;;;4992759;28;20592;-73
2023/06/06 04:39:34;;;;;;;5.07;4.07;;;17.90;91.60;;;;;;4995399;28;20629;-73
2023/06/06 04:42:07;;;;;;;5.90;3.50;;;18.00;91.90;;;;;;5011313;28;20585;-73
2023/06/06 04:44:33;;;;;;;6.13;4.00;;;18.20;91.90;;;;;;4978832;28;20647;-74
2023/06/06 04:47:03;;;;;;;6.53;5.10;;;18.40;91.70;;;;;;5013235;28;20638;-74
2023/06/06 04:49:35;;;;;;;5.70;4.30;;;18.40;91.70;;;;;;5012443;28;20666;-74
2023/06/06 04:52:05;;;;;;;8.47;4.53;;;18.50;91.90;;;;;;4978576;28;20593;-74
2023/06/06 04:54:33;;;;;;;6.67;4.80;;;18.50;92.50;;;;;;5012424;28;20566;-73
2023/06/06 04:57:00;;;;;;;7.10;4.70;;;18.60;92.60;;;;;;4995263;28;20581;-74
2023/06/06 04:59:27;;;;;;;6.60;5.00;;;18.80;93.00;;;;;;4994740;28;20624;-74
2023/06/06 05:01:55;;;;;;;4.47;4.07;;;19.00;93.20;;;;;;4998375;28;21152;-74
2023/06/06 05:04:21;;;;;;;6.80;4.37;;;19.10;93.30;;;;;;5011080;28;20649;-74
2023/06/06 05:06:47;;;;;;;4.30;3.90;;;19.30;93.30;;;;;;4994451;28;20742;-74
2023/06/06 05:09:13;;;;;;;4.70;3.63;;;19.40;93.30;;;;;;4994791;28;20656;-74
2023/06/06 05:11:45;;;;;;;6.30;4.43;;;19.60;93.60;;;;;;4993936;28;20577;-74
2023/06/06 05:14:11;;;;;;;8.93;4.93;;;19.70;93.70;;;;;;4994822;28;20569;-74
2023/06/06 05:16:36;;;;;;;5.63;4.50;;;20.00;93.60;;;;;;5011796;28;20671;-74
2023/06/06 05:19:02;;;;;;;4.83;4.33;;;20.10;93.40;;;;;;4994607;28;20289;-74
2023/06/06 05:21:28;;;;;;;5.30;4.77;;;20.30;93.30;;;;;;4993802;28;20165;-73
2023/06/06 05:23:54;;;;;;;6.03;4.77;;;20.40;93.30;;;;;;4985213;28;20588;-74
2023/06/06 05:26:20;;;;;;;4.70;4.10;;;20.60;93.20;;;;;;4974379;28;20178;-74
2023/06/06 05:28:46;;;;;;;7.20;4.40;;;20.80;93.00;;;;;;4992167;28;20653;-74
2023/06/06 05:31:16;;;;;;;6.50;4.30;;;20.90;92.90;;;;;;4992208;28;20603;-74
2023/06/06 05:33:42;;;;;;;4.60;4.00;;;21.00;92.90;;;;;;4974760;28;20186;-73
2023/06/06 05:36:08;;;;;;;6.77;3.90;;;21.00;92.80;;;;;;5002435;28;20593;-73
2023/06/06 05:38:33;;;;;;;7.00;4.60;;;21.10;92.70;;;;;;4997714;28;20225;-74
2023/06/06 05:40:59;;;;;;;6.60;4.77;;;21.20;92.80;;;;;;4977481;28;20178;-73
2023/06/06 05:43:25;;;;;;;4.60;3.87;;;21.20;92.70;;;;;;5005441;28;20228;-73
2023/06/06 05:45:51;;;;;;;7.07;4.73;;;21.30;92.70;;;;;;4994298;28;20182;-74
2023/06/06 05:48:17;;;;;;;7.30;5.07;;;21.50;93.20;;;;;;4977343;28;21007;-74
2023/06/06 05:50:43;;;;;;;6.60;5.50;;;21.70;93.60;;;;;;4993679;28;20573;-74
2023/06/06 05:53:09;;;;;;;7.17;4.53;;;21.90;93.60;;;;;;4993921;28;20178;-74
2023/06/06 05:55:35;;;;;;;7.40;4.67;;;22.30;94.00;;;;;;4993778;28;20574;-75
2023/06/06 05:58:03;;;;;;;7.80;4.33;;;23.00;94.50;;;;;;5007087;28;20568;-73
2023/06/06 06:00:31;;;;;;;9.00;4.83;;;23.90;94.80;;;;;;4984951;28;20676;-74
2023/06/06 06:02:57;;;;;;;5.33;4.73;;;24.80;94.50;;;;;;4993799;28;20581;-74
2023/06/06 06:05:29;;;;;;;6.53;3.93;;;25.70;93.50;;;;;;4993687;28;20592;-74
2023/06/06 06:08:00;;;;;;;6.03;4.50;;;26.60;92.50;;;;;;5011365;28;21220;-74
2023/06/06 06:10:27;;;;;;;4.73;4.23;;;27.40;90.10;;;;;;4993041;28;20593;-74
2023/06/06 06:12:53;;;;;;;5.67;5.10;;;28.40;88.60;;;;;;4993572;28;20581;-74
2023/06/06 06:15:19;;;;;;;5.13;4.30;;;29.20;85.90;;;;;;4997117;28;20589;-75
2023/06/06 06:17:45;;;;;;;8.00;3.50;;;30.00;83.50;;;;;;4993525;28;20615;-76
2023/06/06 06:20:13;;;;;;;5.30;3.90;;;30.70;80.20;;;;;;4983895;28;20211;-76
2023/06/06 06:22:39;;;;;;;5.93;4.17;;;31.30;77.10;;;;;;4973814;28;20598;-76
2023/06/06 06:25:08;;;;;;;7.40;4.27;;;31.90;74.80;;;;;;4990400;28;20583;-76
2023/06/06 06:27:37;;;;;;;5.03;4.50;;;32.50;71.80;;;;;;4990866;28;20314;-76
2023/06/06 06:30:04;;;;;;;3.50;3.20;;;33.10;69.50;;;;;;4974213;28;20576;-76
2023/06/06 06:32:33;;;;;;;4.30;3.73;;;33.60;67.20;;;;;;4990971;28;20567;-74
2023/06/06 06:35:00;;;;;;;5.27;3.53;;;34.20;64.40;;;;;;4972289;28;20619;-74
2023/06/06 06:37:29;;;;;;;6.30;4.90;;;34.60;62.60;;;;;;4992911;28;20594;-74
2023/06/06 06:39:56;;;;;;;4.40;3.33;;;35.10;59.40;;;;;;4977071;28;20611;-74
2023/06/06 06:42:22;;;;;;;3.90;3.10;;;35.30;57.40;;;;;;4993093;28;20625;-74
2023/06/06 06:45:01;;;;;;;3.50;3.17;;;35.50;55.80;;;;;;4976770;28;20638;-74
2023/06/06 06:47:27;;;;;;;7.40;4.27;;;35.90;55.00;;;;;;5011009;28;20624;-74
2023/06/06 06:49:53;;;;;;;5.57;3.50;;;36.10;53.10;;;;;;4993477;28;20315;-75
2023/06/06 06:52:18;;;;;;;8.00;3.33;;;36.20;52.60;;;;;;4982060;28;20170;-74
2023/06/06 06:54:54;;;;;;;4.17;2.97;;;36.50;52.00;;;;;;4997519;28;20178;-74
2023/06/06 06:57:26;;;;;;;4.70;3.97;;;36.70;51.60;;;;;;4981310;28;20178;-74
2023/06/06 07:00:12;;;;;;;4.50;3.10;;;37.00;50.70;;;;;;4996667;28;20596;-73
2023/06/06 07:02:44;;;;;;;4.43;3.47;;;37.20;50.00;;;;;;5014779;28;20589;-74
2023/06/06 07:05:17;;;;;;;5.83;3.23;;;37.70;49.10;;;;;;4996885;28;20580;-74
2023/06/06 07:07:49;;;;;;;3.90;2.97;;;37.90;48.10;;;;;;5014670;28;20638;-74
2023/06/06 07:10:16;;;;;;;6.53;3.57;;;38.10;47.50;;;;;;4996381;28;20619;-74
2023/06/06 07:12:45;;;;;;;4.33;2.97;;;38.40;47.20;;;;;;5014702;28;20572;-74
2023/06/06 07:15:10;;;;;;;4.60;3.57;;;38.60;46.60;;;;;;5014741;28;20959;-74
2023/06/06 07:17:36;;;;;;;5.70;3.87;;;38.70;45.10;;;;;;4977068;28;20606;-74
2023/06/06 07:20:04;;;;;;;5.60;3.27;;;38.80;44.40;;;;;;4994835;28;20263;-75
2023/06/06 07:22:30;;;;;;;5.17;3.60;;;38.90;44.10;;;;;;4994304;28;20179;-74
2023/06/06 07:24:56;;;;;;;3.93;3.37;;;39.00;43.60;;;;;;4977607;28;21188;-74
2023/06/06 07:27:22;;;;;;;3.63;3.00;;;39.20;43.50;;;;;;4995822;28;20209;-74
2023/06/06 07:29:47;;;;;;;4.93;3.40;;;39.40;43.20;;;;;;4993632;28;20177;-74
2023/06/06 07:32:13;;;;;;;5.00;2.93;;;39.60;42.60;;;;;;4976690;28;20553;-74
2023/06/06 07:34:40;;;;;;;3.30;3.00;;;39.70;42.20;;;;;;4977060;28;20170;-74
2023/06/06 07:37:06;;;;;;;3.67;3.20;;;39.90;41.70;;;;;;4994839;28;20178;-74
2023/06/06 07:39:32;;;;;;;4.30;3.00;;;40.00;41.20;;;;;;5013897;28;20632;-75
2023/06/06 07:41:58;;;;;;;5.87;3.77;;;40.20;41.10;;;;;;5012228;28;20632;-75
2023/06/06 07:44:24;;;;;;;3.97;3.07;;;40.30;40.40;;;;;;4996021;28;20290;-75
2023/06/06 07:46:50;;;;;;;3.90;3.30;;;40.50;40.00;;;;;;5014242;28;20755;-75
2023/06/06 07:49:15;;;;;;;3.10;2.80;;;40.60;39.50;;;;;;5013964;28;20193;-75
2023/06/06 07:51:41;;;;;;;4.07;2.57;;;40.70;39.10;;;;;;5013946;28;20308;-74
2023/06/06 07:54:07;;;;;;;4.17;3.03;;;40.90;39.00;;;;;;4996321;28;20202;-75
2023/06/06 07:56:36;;;;;;;3.80;2.63;;;41.10;38.00;;;;;;4989524;28;20265;-74
2023/06/06 07:59:02;;;;;;;4.93;2.73;;;41.20;37.90;;;;;;4994442;28;20191;-74
2023/06/06 08:01:29;;;;;;;4.03;2.90;;;41.20;37.10;;;;;;4992294;28;20581;-75
2023/06/06 08:03:55;;;;;;;5.17;2.90;;;41.30;37.00;;;;;;4996649;28;20167;-74
2023/06/06 08:06:23;;;;;;;4.93;3.60;;;41.50;36.80;;;;;;4993787;28;20613;-74
2023/06/06 08:08:49;;;;;;;4.53;2.60;;;41.60;36.30;;;;;;4976576;28;20628;-74
2023/06/06 08:11:17;;;;;;;3.53;3.10;;;41.60;36.10;;;;;;4975884;28;20632;-74
2023/06/06 08:13:43;;;;;;;6.70;3.70;;;41.60;35.80;;;;;;4979444;28;20668;-75
2023/06/06 08:16:09;;;;;;;4.00;3.40;;;41.70;36.00;;;;;;4976006;28;20626;-74
2023/06/06 08:18:35;;;;;;;3.07;2.70;;;41.80;35.50;;;;;;4992516;28;20613;-74
2023/06/06 08:21:01;;;;;;;3.30;2.60;;;41.80;36.40;;;;;;4976195;28;20185;-74
2023/06/06 08:23:26;;;;;;;4.10;2.83;;;41.90;35.30;;;;;;4975816;28;20689;-75
2023/06/06 08:25:55;;;;;;;5.23;3.53;;;41.90;35.10;;;;;;4977492;28;20182;-74
2023/06/06 08:28:24;;;;;;;3.40;3.10;;;42.00;34.90;;;;;;4994547;28;20310;-74
2023/06/06 08:30:51;;;;;;;4.00;3.00;;;42.00;34.50;;;;;;4976734;28;20578;-74
2023/06/06 08:33:17;;;;;;;5.10;2.80;;;42.10;34.50;;;;;;4984480;28;20594;-74
2023/06/06 08:35:43;;;;;;;4.53;3.00;;;42.10;34.40;;;;;;4980332;28;20620;-75
2023/06/06 08:38:10;;;;;;;4.27;3.13;;;42.20;34.20;;;;;;5000159;28;20740;-74
2023/06/06 08:40:35;;;;;;;7.17;3.43;;;42.30;34.00;;;;;;5016860;28;20676;-74
2023/06/06 08:43:04;;;;;;;4.17;3.37;;;42.40;33.70;;;;;;4994756;28;20685;-74
2023/06/06 08:45:32;;;;;;;3.77;3.10;;;42.50;33.70;;;;;;4995365;28;20186;-74
2023/06/06 08:48:01;;;;;;;5.90;3.70;;;42.50;32.90;;;;;;5012815;28;20648;-75
2023/06/06 08:50:28;;;;;;;4.33;3.67;;;42.30;32.30;;;;;;5012405;28;20569;-74
2023/06/06 08:52:55;;;;;;;4.67;2.90;;;42.20;32.10;;;;;;5011529;28;20696;-74
2023/06/06 08:55:21;;;;;;;4.10;3.57;;;42.00;32.40;;;;;;4994936;28;20592;-74
2023/06/06 08:57:47;;;;;;;4.03;2.87;;;41.90;32.40;;;;;;5012865;28;20605;-74
2023/06/06 09:00:21;;;;;;;4.60;3.07;;;42.00;32.50;;;;;;4994581;28;20642;-74
2023/06/06 09:02:47;;;;;;;3.80;2.70;;;41.90;32.80;;;;;;4978884;28;20232;-74
2023/06/06 09:05:16;;;;;;;4.30;3.03;;;42.00;32.70;;;;;;4994744;28;20577;-74
2023/06/06 09:07:42;;;;;;;5.97;2.80;;;42.00;32.20;;;;;;4999065;28;20646;-75
2023/06/06 09:10:09;;;;;;;3.60;3.30;;;41.90;32.00;;;;;;4974892;28;20606;-75
2023/06/06 09:12:46;;;;;;;6.47;3.60;;;42.00;32.00;;;;;;4974834;28;20175;-75
2023/06/06 09:15:13;;;;;;;5.37;3.20;;;42.10;32.10;;;;;;4991697;28;20578;-75
2023/06/06 09:17:40;;;;;;;6.27;3.50;;;42.20;31.90;;;;;;4991391;28;20570;-74
2023/06/06 09:20:07;;;;;;;4.90;3.70;;;42.20;31.90;;;;;;4991102;28;20592;-75
2023/06/06 09:22:40;;;;;;;6.27;3.20;;;42.20;31.60;;;;;;4992010;28;20597;-74
2023/06/06 09:25:15;;;;;;;4.37;3.50;;;42.10;30.80;;;;;;4975207;28;20682;-74
2023/06/06 09:27:41;;;;;;;4.90;3.50;;;41.90;30.90;;;;;;4991735;28;20652;-74
2023/06/06 09:30:18;;;;;;;5.20;3.30;;;41.70;31.10;;;;;;4992237;28;20574;-74
2023/06/06 09:32:43;;;;;;;4.23;2.50;;;41.80;31.40;;;;;;4974490;28;20248;-74
2023/06/06 09:35:09;;;;;;;5.87;2.50;;;41.80;31.70;;;;;;4993091;28;20598;-75
2023/06/06 09:37:38;;;;;;;5.00;2.80;;;41.90;31.70;;;;;;5011735;28;20209;-75
2023/06/06 09:40:11;;;;;;;5.13;3.27;;;41.90;31.10;;;;;;5010841;28;20738;-74
2023/06/06 09:42:38;;;;;;;8.37;3.93;;;41.80;30.40;;;;;;4978040;28;20672;-74
2023/06/06 09:45:24;;;;;;;4.43;3.03;;;41.70;30.70;;;;;;5011636;28;20569;-75
2023/06/06 09:47:49;;;;;;;3.20;2.70;;;41.80;31.10;;;;;;4993793;28;20663;-75
2023/06/06 09:50:17;;;;;;;4.47;2.20;;;41.70;31.00;;;;;;4993710;28;20665;-75
2023/06/06 09:52:43;;;;;;;4.27;2.73;;;41.70;31.10;;;;;;5011745;28;20261;-75
2023/06/06 09:55:13;;;;;;;2.40;2.17;;;41.80;30.60;;;;;;4998376;28;20620;-75
2023/06/06 09:57:40;;;;;;;6.47;2.80;;;41.90;30.40;;;;;;5011734;28;20177;-75
2023/06/06 10:00:12;;;;;;;3.60;2.13;;;42.00;30.70;;;;;;5011120;28;20612;-75
2023/06/06 10:02:45;;;;;;;2.53;1.40;;;42.20;30.70;;;;;;5011553;28;20573;-75
2023/06/06 10:05:12;;;;;;;3.40;2.20;;;42.40;30.40;;;;;;4999664;28;20625;-75
2023/06/06 10:07:45;;;;;;;4.83;2.63;;;42.50;29.90;;;;;;4993456;28;20641;-75
2023/06/06 10:10:13;;;;;;;3.13;2.13;;;42.40;29.50;;;;;;4990433;28;20669;-75
2023/06/06 10:12:40;;;;;;;3.80;1.63;;;42.30;29.30;;;;;;4991470;28;20586;-75
2023/06/06 10:15:09;;;;;;;4.30;2.40;;;42.30;29.20;;;;;;4991882;28;20577;-74
2023/06/06 10:17:38;;;;;;;3.77;1.30;;;42.30;29.00;;;;;;4991329;28;20578;-75
2023/06/06 10:20:06;;;;;;;3.90;1.50;;;42.30;29.50;;;;;;4991664;28;20669;-74
2023/06/06 10:22:38;;;;;;;4.77;2.63;;;42.50;29.00;;;;;;4991401;28;20570;-74
2023/06/06 10:25:13;;;;;;;4.10;2.27;;;42.50;28.90;;;;;;4991989;28;20625;-75
2023/06/06 10:27:41;;;;;;;3.07;1.80;;;42.60;29.10;;;;;;4989436;28;20628;-74
2023/06/06 10:30:20;;;;;;;3.37;1.77;;;42.80;28.90;;;;;;4992230;28;20574;-74
2023/06/06 10:33:13;;;;;;;2.97;1.60;;;42.80;28.00;;;;;;4991483;28;20621;-74
2023/06/06 10:35:43;;;;;;;2.27;1.43;;;42.80;28.50;;;;;;4993330;28;20593;-74
2023/06/06 10:38:09;;;;;;;2.93;2.00;;;42.70;28.40;;;;;;5010765;28;20967;-75
2023/06/06 10:40:51;;;;;;;4.70;2.00;;;42.60;28.20;;;;;;4993293;28;20938;-75
2023/06/06 10:43:44;;;;;;;2.90;1.50;;;42.60;28.10;;;;;;4978206;28;20655;-74
2023/06/06 10:46:10;;;;;;;2.90;1.57;;;42.40;28.00;;;;;;4974107;28;20981;-75
2023/06/06 10:48:45;;;;;;;2.90;1.83;;;42.10;28.10;;;;;;4991468;28;20989;-74
2023/06/06 10:51:31;;;;;;;4.50;1.90;;;41.90;28.30;;;;;;4957351;28;20596;-74
2023/06/06 10:54:17;;;;;;;3.93;2.10;;;41.70;28.20;;;;;;4991370;28;21180;-75
2023/06/06 10:56:54;;;;;;;3.23;2.30;;;41.40;28.50;;;;;;4991113;28;20574;-74
2023/06/06 10:59:26;;;;;;;2.67;1.93;;;41.00;28.60;;;;;;4991453;28;20967;-74
2023/06/06 11:01:54;;;;;;;4.77;2.80;;;40.70;29.10;;;;;;4981692;28;20609;-74
2023/06/06 11:04:25;;;;;;;6.60;4.40;;;40.50;29.50;;;;;;4991050;28;20578;-74
2023/06/06 11:06:52;;;;;;;2.90;2.57;;;40.30;29.50;;;;;;4993347;28;20736;-75
2023/06/06 11:09:24;;;;;;;3.70;1.93;;;40.10;29.40;;;;;;4991885;28;21228;-74
2023/06/06 11:12:10;;;;;;;8.60;4.20;;;39.80;29.50;;;;;;4972963;28;20593;-75
2023/06/06 11:14:58;;;;;;;4.50;2.83;;;39.50;29.60;;;;;;4973493;28;20637;-74
2023/06/06 11:17:29;;;;;;;3.57;2.30;;;39.30;29.70;;;;;;4973223;28;21171;-74
2023/06/06 11:19:56;;;;;;;3.20;2.57;;;39.10;29.80;;;;;;4980919;28;20606;-74
2023/06/06 11:22:24;;;;;;;3.23;2.27;;;38.90;29.80;;;;;;4989646;28;20593;-74
2023/06/06 11:24:50;;;;;;;3.93;1.87;;;38.80;29.70;;;;;;4993131;28;20585;-74
2023/06/06 11:27:16;;;;;;;3.97;2.50;;;38.70;29.80;;;;;;4992656;28;20641;-75
2023/06/06 11:29:43;;;;;;;3.40;2.00;;;38.70;30.00;;;;;;4992452;28;20573;-75
2023/06/06 11:32:12;;;;;;;3.43;2.03;;;38.60;30.00;;;;;;5010529;28;20581;-74
2023/06/06 11:34:38;;;;;;;10.80;1.90;;;38.50;29.80;;;;;;4983959;28;20977;-75
2023/06/06 11:37:08;;;;;;;2.97;1.83;;;38.50;30.00;;;;;;5005664;28;20597;-74
2023/06/06 11:39:34;;;;;;;5.10;1.90;;;38.40;29.90;;;;;;4978502;28;20631;-74
2023/06/06 11:42:00;;;;;;;4.93;2.53;;;38.40;30.00;;;;;;4996039;28;20600;-74
2023/06/06 11:44:32;;;;;;;4.97;2.10;;;38.30;29.80;;;;;;4998829;28;20596;-74
2023/06/06 11:46:58;;;;;;;3.43;1.70;;;38.10;29.80;;;;;;4994422;28;21070;-74
2023/06/06 11:49:24;;;;;;;5.40;2.17;;;38.00;29.70;;;;;;4994179;28;20594;-74
2023/06/06 11:52:00;;;;;;;17.20;2.60;;;37.90;29.80;;;;;;4993967;28;20915;-74
2023/06/06 11:54:29;;;;;;;9.60;2.30;;;37.80;30.00;;;;;;4977002;28;20179;-74
2023/06/06 11:57:03;;;;;;;4.60;1.60;;;37.70;30.00;;;;;;4993613;28;20989;-74
2023/06/06 11:59:29;;;;;;;3.20;1.83;;;37.50;29.70;;;;;;4993879;28;21207;-74
2023/06/06 12:01:56;;;;;;;6.03;2.30;;;37.20;29.40;;;;;;4991923;28;20621;-74
2023/06/06 12:04:26;;;;;;;6.73;2.20;;;36.90;29.30;;;;;;4976786;28;20669;-74
2023/06/06 12:06:55;;;;;;;3.80;2.30;;;36.40;29.20;;;;;;4993625;28;20628;-74
2023/06/06 12:09:23;;;;;;;3.53;1.57;;;35.90;29.10;;;;;;4976486;28;20626;-74
2023/06/06 12:11:57;;;;;;;4.90;2.53;;;35.30;29.00;;;;;;4959466;28;20631;-74
2023/06/06 12:14:25;;;;;;;3.63;1.57;;;34.70;29.30;;;;;;4994108;28;21105;-74
2023/06/06 12:16:52;;;;;;;4.10;1.87;;;34.20;29.30;;;;;;4976093;28;20667;-74
2023/06/06 12:19:19;;;;;;;3.10;2.00;;;33.70;29.50;;;;;;4993944;28;20627;-74
2023/06/06 12:21:49;;;;;;;3.43;1.70;;;33.30;29.90;;;;;;4996499;28;20572;-74
2023/06/06 12:24:26;;;;;;;3.93;1.80;;;32.80;30.70;;;;;;5001179;28;20640;-74
2023/06/06 12:26:56;;;;;;;6.17;2.10;;;32.50;30.60;;;;;;4956717;28;20646;-74
2023/06/06 12:29:35;;;;;;;3.93;1.97;;;32.10;30.80;;;;;;4974942;28;20626;-74
2023/06/06 12:32:15;;;;;;;3.00;1.53;;;31.80;31.10;;;;;;4959446;28;20644;-74
2023/06/06 12:34:49;;;;;;;8.50;2.67;;;31.60;31.60;;;;;;4975451;28;20590;-75
2023/06/06 12:37:16;;;;;;;4.23;2.13;;;31.50;31.80;;;;;;4994877;28;20593;-74
2023/06/06 12:39:43;;;;;;;5.57;1.83;;;31.40;31.90;;;;;;5012392;28;20605;-74
2023/06/06 12:42:19;;;;;;;5.17;2.20;;;31.30;32.10;;;;;;4989548;28;21174;-74
2023/06/06 12:44:46;;;;;;;4.07;1.70;;;31.20;33.50;;;;;;4975551;28;20594;-75
2023/06/06 12:47:13;;;;;;;2.80;1.83;;;31.30;33.00;;;;;;4975855;28;20641;-75
2023/06/06 12:49:40;;;;;;;2.93;2.00;;;31.10;33.50;;;;;;4992701;28;20632;-75
2023/06/06 12:52:06;;;;;;;3.93;1.70;;;31.10;33.30;;;;;;4992866;28;20579;-74